createdAt,value
2022-11-20T00:00:45.838Z,-0.31
2022-11-20T00:01:48.620Z,-0.28
2022-11-20T00:02:50.563Z,-0.22
2022-11-20T00:03:54.679Z,-0.22
2022-11-20T00:04:57.093Z,-0.15
2022-11-20T00:06:04.690Z,-0.07
2022-11-20T00:07:06.504Z,-0.09
2022-11-20T00:08:08.397Z,-0.06
2022-11-20T00:09:10.514Z,0.04
2022-11-20T00:10:13.375Z,0.04
2022-11-20T00:11:18.854Z,0.06
2022-11-20T00:12:20.585Z,0.09
2022-11-20T00:13:22.741Z,0.08
2022-11-20T00:14:24.517Z,-0.11
2022-11-20T00:15:26.279Z,-0.11
2022-11-20T00:16:31.332Z,-0.11
2022-11-20T00:17:33.739Z,-0.11
2022-11-20T00:18:37.161Z,0.02
2022-11-20T00:19:39.005Z,0.03
2022-11-20T00:20:41.069Z,0.05
2022-11-20T00:21:42.820Z,-0.01
2022-11-20T00:22:44.532Z,-0.03
2022-11-20T00:23:47.598Z,0.06
2022-11-20T00:24:49.877Z,-0.05
2022-11-20T00:25:52.117Z,-0.02
2022-11-20T00:26:53.880Z,-0.09
2022-11-20T00:27:55.530Z,-0.22
2022-11-20T00:29:00.536Z,-0.26
2022-11-20T00:30:04.368Z,-0.22
2022-11-20T00:31:09.973Z,-0.30
2022-11-20T00:32:11.801Z,-0.30
2022-11-20T00:33:13.710Z,-0.25
2022-11-20T00:34:15.469Z,-0.24
2022-11-20T00:35:17.284Z,-0.24
2022-11-20T00:36:26.607Z,-0.27
2022-11-20T00:37:28.864Z,-0.22
2022-11-20T00:38:31.891Z,-0.27
2022-11-20T00:39:33.736Z,-0.30
2022-11-20T00:40:35.834Z,-0.23
2022-11-20T00:41:37.911Z,-0.24
2022-11-20T00:42:39.742Z,-0.22
2022-11-20T00:43:41.884Z,-0.21
2022-11-20T00:44:43.682Z,-0.32
2022-11-20T00:45:45.432Z,-0.26
2022-11-20T00:46:47.143Z,-0.26
2022-11-20T00:47:49.394Z,-0.21
2022-11-20T00:48:51.266Z,-0.26
2022-11-20T00:49:53.396Z,-0.26
2022-11-20T00:50:56.093Z,-0.27
2022-11-20T00:51:57.791Z,-0.19
2022-11-20T00:52:59.394Z,-0.20
2022-11-20T00:54:01.588Z,-0.25
2022-11-20T00:55:04.398Z,-0.28
2022-11-20T00:56:11.346Z,-0.33
2022-11-20T00:57:13.160Z,-0.28
2022-11-20T00:58:15.012Z,-0.21
2022-11-20T00:59:16.723Z,-0.16
2022-11-20T01:00:19.341Z,-0.43
2022-11-20T01:01:24.112Z,-0.65
2022-11-20T01:02:26.040Z,-0.76
2022-11-20T01:03:30.482Z,-0.71
2022-11-20T01:04:32.460Z,-0.59
2022-11-20T01:05:35.611Z,-0.59
2022-11-20T01:06:38.968Z,-0.49
2022-11-20T01:07:41.856Z,-0.42
2022-11-20T01:08:44.939Z,-0.36
2022-11-20T01:09:46.799Z,-0.36
2022-11-20T01:10:48.683Z,-0.31
2022-11-20T01:11:50.569Z,-0.32
2022-11-20T01:12:52.422Z,-0.26
2022-11-20T01:13:56.328Z,-0.22
2022-11-20T01:14:58.302Z,-0.14
2022-11-20T01:16:05.289Z,-0.09
2022-11-20T01:17:07.143Z,-0.01
2022-11-20T01:18:10.099Z,0.08
2022-11-20T01:19:17.946Z,0.06
2022-11-20T01:20:19.340Z,0.07
2022-11-20T01:21:24.098Z,0.06
2022-11-20T01:22:26.098Z,0.04
2022-11-20T01:23:34.512Z,0.08
2022-11-20T01:24:36.429Z,0.13
2022-11-20T01:25:38.279Z,0.10
2022-11-20T01:26:41.800Z,0.10
2022-11-20T01:27:43.663Z,0.15
2022-11-20T01:28:47.133Z,0.18
2022-11-20T01:29:49.925Z,0.21
2022-11-20T01:30:51.786Z,0.25
2022-11-20T01:31:53.866Z,0.33
2022-11-20T01:32:56.117Z,0.34
2022-11-20T01:34:01.205Z,0.33
2022-11-20T01:35:03.469Z,0.26
2022-11-20T01:36:06.974Z,0.30
2022-11-20T01:37:08.913Z,0.26
2022-11-20T01:38:11.768Z,0.17
2022-11-20T01:39:17.239Z,0.08
2022-11-20T01:40:19.256Z,-0.14
2022-11-20T01:41:21.609Z,-0.10
2022-11-20T01:42:23.267Z,-0.03
2022-11-20T01:43:25.529Z,0.03
2022-11-20T01:44:49.318Z,0.07
2022-11-20T01:46:00.920Z,0.17
2022-11-20T01:47:05.421Z,0.21
2022-11-20T01:48:07.930Z,0.30
2022-11-20T01:49:30.657Z,0.29
2022-11-20T01:50:32.726Z,0.32
2022-11-20T01:51:41.094Z,0.35
2022-11-20T01:52:49.365Z,0.46
2022-11-20T01:53:54.573Z,0.51
2022-11-20T01:55:06.462Z,0.45
2022-11-20T01:56:12.270Z,0.47
2022-11-20T01:57:18.172Z,0.51
2022-11-20T01:58:23.766Z,0.52
2022-11-20T01:59:28.393Z,0.43
2022-11-20T02:00:31.518Z,0.14
2022-11-20T02:01:34.612Z,0.04
2022-11-20T02:02:39.545Z,0.08
2022-11-20T02:03:42.378Z,0.13
2022-11-20T02:04:45.839Z,0.19
2022-11-20T02:06:15.799Z,0.23
2022-11-20T02:07:19.101Z,0.24
2022-11-20T02:08:24.583Z,0.27
2022-11-20T02:09:27.509Z,0.28
2022-11-20T02:10:30.195Z,0.28
2022-11-20T02:11:32.364Z,0.30
2022-11-20T02:12:34.249Z,0.35
2022-11-20T02:13:36.373Z,0.33
2022-11-20T02:14:38.308Z,0.31
2022-11-20T02:15:41.201Z,0.33
2022-11-20T02:16:49.589Z,0.26
2022-11-20T02:17:51.829Z,0.28
2022-11-20T02:19:00.420Z,0.14
2022-11-20T02:20:03.455Z,0.06
2022-11-20T02:21:09.089Z,-0.29
2022-11-20T02:22:20.699Z,-0.14
2022-11-20T02:23:26.259Z,-0.14
2022-11-20T02:24:28.609Z,-0.11
2022-11-20T02:25:33.310Z,-0.09
2022-11-20T02:26:38.891Z,-0.16
2022-11-20T02:27:41.253Z,-0.16
2022-11-20T02:28:43.330Z,-0.25
2022-11-20T02:29:48.909Z,-0.46
2022-11-20T02:30:50.860Z,-0.41
2022-11-20T02:31:55.525Z,-0.32
2022-11-20T02:32:58.919Z,-0.23
2022-11-20T02:34:01.912Z,-0.20
2022-11-20T02:35:22.126Z,-0.13
2022-11-20T02:36:27.895Z,-0.13
2022-11-20T02:37:33.330Z,-0.03
2022-11-20T02:38:35.605Z,-0.09
2022-11-20T02:39:37.600Z,-0.05
2022-11-20T02:40:39.592Z,-0.12
2022-11-20T02:41:41.520Z,-0.12
2022-11-20T02:42:44.258Z,-0.08
2022-11-20T02:43:46.083Z,-0.05
2022-11-20T02:44:47.800Z,-0.03
2022-11-20T02:45:50.272Z,0.05
2022-11-20T02:46:52.290Z,0.01
2022-11-20T02:47:54.413Z,0.01
2022-11-20T02:48:56.308Z,-0.03
2022-11-20T02:49:58.773Z,0.01
2022-11-20T02:51:00.779Z,0.01
2022-11-20T02:52:02.645Z,0.03
2022-11-20T02:53:04.876Z,0.06
2022-11-20T02:54:06.540Z,0.17
2022-11-20T02:55:08.828Z,0.17
2022-11-20T02:56:13.309Z,0.27
2022-11-20T02:57:15.203Z,0.10
2022-11-20T02:58:16.978Z,0.09
2022-11-20T02:59:18.996Z,0.07
2022-11-20T03:00:21.246Z,0.01
2022-11-20T03:01:23.200Z,0.04
2022-11-20T03:02:25.241Z,0.08
2022-11-20T03:03:26.956Z,0.10
2022-11-20T03:04:28.810Z,0.18
2022-11-20T03:05:30.601Z,0.27
2022-11-20T03:06:33.094Z,0.27
2022-11-20T03:07:34.772Z,0.13
2022-11-20T03:08:36.944Z,0.20
2022-11-20T03:09:38.737Z,0.22
2022-11-20T03:10:40.589Z,0.27
2022-11-20T03:11:42.496Z,0.31
2022-11-20T03:12:44.540Z,0.28
2022-11-20T03:13:46.464Z,0.08
2022-11-20T03:14:52.841Z,-0.11
2022-11-20T03:15:51.821Z,-0.18
2022-11-20T03:16:53.537Z,-0.11
2022-11-20T03:17:55.971Z,-0.03
2022-11-20T03:18:57.979Z,0.04
2022-11-20T03:19:59.738Z,0.05
2022-11-20T03:21:01.692Z,0.15
2022-11-20T03:22:03.603Z,0.23
2022-11-20T03:23:05.377Z,0.29
2022-11-20T03:24:08.903Z,0.41
2022-11-20T03:25:10.641Z,0.46
2022-11-20T03:26:21.462Z,0.52
2022-11-20T03:27:23.296Z,0.56
2022-11-20T03:28:24.926Z,0.61
2022-11-20T03:29:26.947Z,0.67
2022-11-20T03:30:30.758Z,0.69
2022-11-20T03:31:36.875Z,0.67
2022-11-20T03:32:38.858Z,0.55
2022-11-20T03:33:42.644Z,0.49
2022-11-20T03:34:45.166Z,0.44
2022-11-20T03:35:47.152Z,0.40
2022-11-20T03:36:50.070Z,0.42
2022-11-20T03:37:51.811Z,0.42
2022-11-20T03:38:55.060Z,0.45
2022-11-20T03:39:57.243Z,0.46
2022-11-20T03:41:04.599Z,0.48
2022-11-20T03:42:06.427Z,0.54
2022-11-20T03:43:10.055Z,0.58
2022-11-20T03:44:12.716Z,0.57
2022-11-20T03:45:17.461Z,0.57
2022-11-20T03:46:20.558Z,0.66
2022-11-20T03:47:22.546Z,0.73
2022-11-20T03:48:25.660Z,0.81
2022-11-20T03:49:27.653Z,0.86
2022-11-20T03:50:29.720Z,0.87
2022-11-20T03:51:33.884Z,0.84
2022-11-20T03:52:35.814Z,0.84
2022-11-20T03:53:38.531Z,0.86
2022-11-20T03:54:40.203Z,0.83
2022-11-20T03:55:42.239Z,0.85
2022-11-20T03:56:44.027Z,0.82
2022-11-20T03:57:45.658Z,0.82
2022-11-20T03:58:47.364Z,0.82
2022-11-20T03:59:49.297Z,0.85
2022-11-20T04:00:51.372Z,0.86
2022-11-20T04:01:53.168Z,0.85
2022-11-20T04:02:59.843Z,0.82
2022-11-20T04:04:01.991Z,0.82
2022-11-20T04:05:04.595Z,0.85
2022-11-20T04:06:12.058Z,0.76
2022-11-20T04:07:13.838Z,0.71
2022-11-20T04:08:15.804Z,0.69
2022-11-20T04:09:17.416Z,0.67
2022-11-20T04:10:19.592Z,0.67
2022-11-20T04:11:24.465Z,0.71
2022-11-20T04:12:26.229Z,0.79
2022-11-20T04:13:28.389Z,0.79
2022-11-20T04:14:30.769Z,0.77
2022-11-20T04:15:38.122Z,0.70
2022-11-20T04:16:36.879Z,0.63
2022-11-20T04:17:38.726Z,0.64
2022-11-20T04:18:40.793Z,0.67
2022-11-20T04:19:42.703Z,0.68
2022-11-20T04:20:44.559Z,0.72
2022-11-20T04:21:46.873Z,0.78
2022-11-20T04:22:48.660Z,0.84
2022-11-20T04:23:51.919Z,0.86
2022-11-20T04:24:53.747Z,0.89
2022-11-20T04:25:57.687Z,0.94
2022-11-20T04:26:59.588Z,0.97
2022-11-20T04:28:01.453Z,0.94
2022-11-20T04:29:04.529Z,0.96
2022-11-20T04:30:07.757Z,0.99
2022-11-20T04:31:12.758Z,1.03
2022-11-20T04:32:14.655Z,1.01
2022-11-20T04:33:16.383Z,1.00
2022-11-20T04:34:18.156Z,0.98
2022-11-20T04:35:19.976Z,1.00
2022-11-20T04:36:24.732Z,1.03
2022-11-20T04:37:26.547Z,1.02
2022-11-20T04:38:28.399Z,1.01
2022-11-20T04:39:30.006Z,1.05
2022-11-20T04:40:31.938Z,1.08
2022-11-20T04:41:36.680Z,1.10
2022-11-20T04:42:38.468Z,1.14
2022-11-20T04:43:40.097Z,1.14
2022-11-20T04:44:41.837Z,1.13
2022-11-20T04:45:43.461Z,1.09
2022-11-20T04:46:45.197Z,1.08
2022-11-20T04:47:46.822Z,1.10
2022-11-20T04:48:48.473Z,1.08
2022-11-20T04:49:50.536Z,1.07
2022-11-20T04:50:53.108Z,1.07
2022-11-20T04:51:55.483Z,1.07
2022-11-20T04:52:57.306Z,1.07
2022-11-20T04:53:59.207Z,1.05
2022-11-20T04:55:00.953Z,0.98
2022-11-20T04:56:05.735Z,0.98
2022-11-20T04:57:12.898Z,1.03
2022-11-20T04:58:11.945Z,1.07
2022-11-20T04:59:14.085Z,1.05
2022-11-20T05:00:17.080Z,1.06
2022-11-20T05:01:23.484Z,1.08
2022-11-20T05:02:25.887Z,1.13
2022-11-20T05:03:27.934Z,1.11
2022-11-20T05:04:29.830Z,1.11
2022-11-20T05:05:32.054Z,1.11
2022-11-20T05:06:34.350Z,1.13
2022-11-20T05:07:36.260Z,1.14
2022-11-20T05:08:38.624Z,1.14
2022-11-20T05:09:40.625Z,1.14
2022-11-20T05:10:42.428Z,1.14
2022-11-20T05:11:46.225Z,1.14
2022-11-20T05:12:48.091Z,1.16
2022-11-20T05:13:51.680Z,1.18
2022-11-20T05:14:53.887Z,1.19
2022-11-20T05:15:55.863Z,1.18
2022-11-20T05:16:57.706Z,1.15
2022-11-20T05:17:59.332Z,1.15
2022-11-20T05:19:01.069Z,1.15
2022-11-20T05:20:03.360Z,1.15
2022-11-20T05:21:06.801Z,1.10
2022-11-20T05:22:09.098Z,1.13
2022-11-20T05:23:10.927Z,1.11
2022-11-20T05:24:12.728Z,1.13
2022-11-20T05:25:15.128Z,1.11
2022-11-20T05:26:21.417Z,1.07
2022-11-20T05:27:23.284Z,0.96
2022-11-20T05:28:25.910Z,0.93
2022-11-20T05:29:27.712Z,0.92
2022-11-20T05:30:29.626Z,0.90
2022-11-20T05:31:32.417Z,0.87
2022-11-20T05:32:34.698Z,0.82
2022-11-20T05:33:37.081Z,0.82
2022-11-20T05:34:39.280Z,0.79
2022-11-20T05:35:41.303Z,0.79
2022-11-20T05:36:43.178Z,0.77
2022-11-20T05:37:45.031Z,0.76
2022-11-20T05:38:50.641Z,0.78
2022-11-20T05:39:51.199Z,0.79
2022-11-20T05:40:53.027Z,0.75
2022-11-20T05:41:55.021Z,0.73
2022-11-20T05:42:56.846Z,0.56
2022-11-20T05:43:58.788Z,0.40
2022-11-20T05:45:02.614Z,0.32
2022-11-20T05:46:06.332Z,0.37
2022-11-20T05:47:08.289Z,0.42
2022-11-20T05:48:09.917Z,0.44
2022-11-20T05:49:13.446Z,0.53
2022-11-20T05:50:17.484Z,0.55
2022-11-20T05:51:19.880Z,0.57
2022-11-20T05:52:21.698Z,0.59
2022-11-20T05:53:25.515Z,0.63
2022-11-20T05:54:27.412Z,0.67
2022-11-20T05:55:30.108Z,0.69
2022-11-20T05:56:31.973Z,0.75
2022-11-20T05:57:33.807Z,0.78
2022-11-20T05:58:36.353Z,0.83
2022-11-20T05:59:39.355Z,0.83
2022-11-20T06:00:41.726Z,0.47
2022-11-20T06:01:45.670Z,0.41
2022-11-20T06:02:47.539Z,0.35
2022-11-20T06:03:50.715Z,0.18
2022-11-20T06:04:52.598Z,-0.11
2022-11-20T06:05:54.342Z,-0.30
2022-11-20T06:06:56.277Z,-0.36
2022-11-20T06:07:58.028Z,-0.28
2022-11-20T06:08:59.941Z,-0.15
2022-11-20T06:10:01.982Z,-0.14
2022-11-20T06:11:05.878Z,-0.22
2022-11-20T06:12:08.294Z,-0.19
2022-11-20T06:13:09.972Z,-0.31
2022-11-20T06:14:11.915Z,-0.44
2022-11-20T06:15:13.932Z,-0.45
2022-11-20T06:16:20.331Z,-0.46
2022-11-20T06:17:22.901Z,-0.36
2022-11-20T06:18:29.399Z,-0.43
2022-11-20T06:19:31.500Z,-0.36
2022-11-20T06:20:37.864Z,-0.38
2022-11-20T06:21:37.167Z,-0.29
2022-11-20T06:22:38.911Z,-0.16
2022-11-20T06:23:41.541Z,-0.01
2022-11-20T06:24:43.483Z,0.06
2022-11-20T06:25:45.264Z,0.18
2022-11-20T06:26:47.092Z,0.31
2022-11-20T06:27:48.902Z,0.44
2022-11-20T06:28:52.161Z,0.54
2022-11-20T06:29:54.101Z,0.65
2022-11-20T06:30:56.534Z,0.75
2022-11-20T06:31:58.411Z,0.86
2022-11-20T06:33:00.569Z,0.93
2022-11-20T06:34:02.907Z,1.00
2022-11-20T06:35:06.584Z,1.05
2022-11-20T06:36:12.459Z,1.15
2022-11-20T06:37:14.713Z,1.11
2022-11-20T06:38:16.685Z,1.09
2022-11-20T06:39:18.683Z,1.02
2022-11-20T06:40:21.403Z,1.06
2022-11-20T06:41:23.346Z,1.13
2022-11-20T06:42:25.680Z,1.15
2022-11-20T06:43:29.579Z,1.19
2022-11-20T06:44:31.505Z,1.22
2022-11-20T06:45:33.604Z,1.23
2022-11-20T06:46:35.534Z,1.21
2022-11-20T06:47:37.285Z,1.22
2022-11-20T06:48:40.026Z,1.18
2022-11-20T06:49:42.111Z,1.22
2022-11-20T06:50:44.164Z,1.28
2022-11-20T06:51:45.912Z,1.26
2022-11-20T06:52:47.728Z,1.31
2022-11-20T06:53:49.986Z,1.37
2022-11-20T06:54:51.887Z,1.49
2022-11-20T06:55:57.106Z,1.54
2022-11-20T06:56:59.250Z,1.58
2022-11-20T06:58:01.527Z,1.62
2022-11-20T06:59:07.671Z,1.60
2022-11-20T07:00:13.272Z,1.62
2022-11-20T07:01:15.927Z,1.68
2022-11-20T07:02:17.841Z,1.71
2022-11-20T07:03:21.741Z,1.77
2022-11-20T07:04:23.692Z,1.80
2022-11-20T07:05:25.403Z,1.86
2022-11-20T07:06:29.403Z,1.92
2022-11-20T07:07:31.261Z,1.97
2022-11-20T07:08:34.159Z,2.00
2022-11-20T07:09:35.836Z,1.98
2022-11-20T07:10:38.215Z,1.97
2022-11-20T07:11:40.218Z,1.91
2022-11-20T07:12:41.842Z,1.88
2022-11-20T07:13:43.806Z,1.83
2022-11-20T07:14:45.696Z,1.78
2022-11-20T07:15:48.484Z,1.80
2022-11-20T07:16:50.538Z,1.78
2022-11-20T07:17:52.685Z,1.83
2022-11-20T07:18:54.809Z,1.87
2022-11-20T07:19:56.569Z,1.90
2022-11-20T07:21:09.780Z,1.93
2022-11-20T07:22:12.028Z,1.96
2022-11-20T07:23:14.933Z,2.05
2022-11-20T07:24:17.270Z,2.08
2022-11-20T07:25:19.716Z,2.07
2022-11-20T07:26:21.522Z,2.05
2022-11-20T07:27:23.137Z,2.13
2022-11-20T07:28:24.943Z,2.18
2022-11-20T07:29:26.793Z,2.20
2022-11-20T07:30:29.649Z,2.24
2022-11-20T07:31:31.697Z,2.24
2022-11-20T07:32:33.585Z,2.25
2022-11-20T07:33:35.543Z,2.21
2022-11-20T07:34:37.186Z,2.19
2022-11-20T07:35:39.138Z,2.18
2022-11-20T07:36:41.555Z,2.19
2022-11-20T07:37:43.448Z,2.20
2022-11-20T07:38:45.196Z,2.26
2022-11-20T07:39:47.456Z,2.26
2022-11-20T07:40:53.057Z,2.32
2022-11-20T07:41:55.855Z,2.35
2022-11-20T07:42:57.732Z,2.40
2022-11-20T07:44:00.728Z,2.48
2022-11-20T07:45:02.876Z,2.52
2022-11-20T07:46:05.175Z,2.53
2022-11-20T07:47:06.944Z,2.57
2022-11-20T07:48:08.683Z,2.59
2022-11-20T07:49:10.558Z,2.62
2022-11-20T07:50:14.049Z,2.66
2022-11-20T07:51:15.968Z,2.62
2022-11-20T07:52:17.888Z,2.54
2022-11-20T07:53:19.508Z,2.53
2022-11-20T07:54:22.316Z,2.56
2022-11-20T07:55:24.182Z,2.57
2022-11-20T07:56:25.948Z,2.61
2022-11-20T07:57:28.616Z,2.67
2022-11-20T07:58:32.167Z,2.70
2022-11-20T07:59:34.036Z,2.74
2022-11-20T08:00:36.013Z,2.75
2022-11-20T08:01:39.037Z,2.71
2022-11-20T08:02:41.775Z,2.70
2022-11-20T08:03:43.556Z,2.77
2022-11-20T08:04:45.291Z,2.76
2022-11-20T08:05:47.434Z,2.64
2022-11-20T08:06:50.653Z,2.44
2022-11-20T08:07:52.672Z,2.37
2022-11-20T08:08:54.366Z,2.21
2022-11-20T08:09:55.980Z,2.20
2022-11-20T08:10:58.850Z,2.12
2022-11-20T08:12:02.666Z,2.03
2022-11-20T08:13:04.811Z,1.95
2022-11-20T08:14:06.692Z,1.77
2022-11-20T08:15:13.061Z,1.82
2022-11-20T08:16:14.775Z,1.88
2022-11-20T08:17:17.128Z,1.95
2022-11-20T08:18:34.894Z,1.88
2022-11-20T08:19:23.718Z,1.91
2022-11-20T08:20:26.371Z,2.01
2022-11-20T08:21:28.153Z,2.10
2022-11-20T08:22:31.733Z,2.21
2022-11-20T08:23:33.865Z,2.30
2022-11-20T08:24:35.491Z,2.38
2022-11-20T08:25:39.597Z,2.45
2022-11-20T08:26:41.544Z,2.54
2022-11-20T08:27:43.326Z,2.56
2022-11-20T08:28:45.217Z,2.68
2022-11-20T08:29:48.163Z,2.77
2022-11-20T08:30:52.558Z,2.86
2022-11-20T08:31:54.402Z,2.65
2022-11-20T08:33:02.703Z,2.71
2022-11-20T08:34:09.164Z,2.71
2022-11-20T08:35:09.122Z,2.73
2022-11-20T08:36:11.989Z,2.78
2022-11-20T08:37:13.766Z,2.80
2022-11-20T08:38:15.420Z,2.80
2022-11-20T08:39:18.105Z,2.81
2022-11-20T08:40:20.014Z,2.85
2022-11-20T08:41:22.716Z,2.87
2022-11-20T08:42:24.464Z,2.87
2022-11-20T08:43:26.202Z,2.90
2022-11-20T08:44:28.400Z,2.90
2022-11-20T08:45:34.014Z,2.96
2022-11-20T08:46:39.327Z,3.04
2022-11-20T08:47:41.483Z,3.09
2022-11-20T08:48:43.981Z,3.13
2022-11-20T08:49:46.349Z,3.15
2022-11-20T08:50:48.277Z,3.18
2022-11-20T08:51:50.520Z,3.16
2022-11-20T08:52:52.206Z,3.19
2022-11-20T08:53:54.086Z,3.19
2022-11-20T08:54:56.266Z,3.09
2022-11-20T08:55:58.772Z,3.08
2022-11-20T08:57:01.737Z,3.05
2022-11-20T08:58:04.830Z,2.98
2022-11-20T09:00:13.485Z,2.66
2022-11-20T09:01:15.990Z,2.53
2022-11-20T09:02:18.461Z,2.44
2022-11-20T09:03:20.890Z,2.36
2022-11-20T09:04:22.734Z,2.37
2022-11-20T09:05:24.942Z,2.32
2022-11-20T09:06:26.947Z,2.33
2022-11-20T09:07:30.087Z,2.27
2022-11-20T09:08:32.917Z,2.21
2022-11-20T09:09:34.611Z,2.21
2022-11-20T09:10:37.127Z,2.12
2022-11-20T09:11:38.901Z,2.12
2022-11-20T09:12:40.564Z,2.03
2022-11-20T09:13:42.169Z,2.05
2022-11-20T09:14:43.823Z,2.14
2022-11-20T09:15:45.421Z,2.26
2022-11-20T09:16:47.258Z,2.38
2022-11-20T09:17:56.877Z,2.44
2022-11-20T09:19:20.707Z,2.29
2022-11-20T09:20:05.272Z,2.05
2022-11-20T09:21:10.835Z,1.93
2022-11-20T09:22:13.172Z,1.88
2022-11-20T09:23:15.791Z,1.81
2022-11-20T09:24:18.180Z,1.64
2022-11-20T09:25:20.014Z,1.67
2022-11-20T09:26:22.211Z,1.73
2022-11-20T09:27:23.930Z,1.73
2022-11-20T09:28:27.240Z,1.84
2022-11-20T09:29:29.356Z,1.92
2022-11-20T09:30:31.483Z,2.04
2022-11-20T09:31:33.281Z,2.12
2022-11-20T09:32:35.006Z,2.20
2022-11-20T09:33:36.845Z,2.29
2022-11-20T09:34:38.577Z,2.39
2022-11-20T09:35:41.402Z,2.48
2022-11-20T09:36:43.456Z,2.57
2022-11-20T09:37:45.619Z,2.56
2022-11-20T09:38:47.913Z,2.59
2022-11-20T09:39:51.131Z,2.62
2022-11-20T09:40:58.982Z,2.65
2022-11-20T09:42:10.804Z,2.56
2022-11-20T09:43:32.325Z,2.34
2022-11-20T09:44:56.688Z,2.15
2022-11-20T09:46:20.326Z,2.00
2022-11-20T09:47:59.752Z,1.97
2022-11-20T09:49:20.343Z,1.83
2022-11-20T09:50:29.133Z,1.67
2022-11-20T09:51:55.879Z,1.75
2022-11-20T09:53:16.650Z,1.78
2022-11-20T09:54:21.184Z,1.86
2022-11-20T09:55:23.606Z,1.92
2022-11-20T09:56:26.910Z,1.79
2022-11-20T09:57:38.167Z,1.87
2022-11-20T09:58:50.210Z,2.00
2022-11-20T09:59:58.962Z,2.05
2022-11-20T10:01:14.311Z,2.19
2022-11-20T10:02:26.520Z,2.29
2022-11-20T10:03:40.807Z,2.42
2022-11-20T10:04:47.356Z,2.49
2022-11-20T10:05:53.020Z,2.57
2022-11-20T10:07:30.388Z,2.62
2022-11-20T10:08:21.020Z,2.62
2022-11-20T10:09:35.628Z,2.55
2022-11-20T10:10:46.436Z,2.55
2022-11-20T10:12:02.032Z,2.59
2022-11-20T10:13:29.085Z,2.64
2022-11-20T10:14:37.290Z,2.75
2022-11-20T10:15:45.772Z,2.69
2022-11-20T10:17:08.395Z,2.73
2022-11-20T10:18:23.191Z,2.74
2022-11-20T10:19:32.808Z,2.07
2022-11-20T10:20:44.400Z,1.76
2022-11-20T10:22:02.528Z,1.84
2022-11-20T10:23:25.613Z,1.97
2022-11-20T10:24:54.218Z,1.97
2022-11-20T10:26:05.992Z,1.88
2022-11-20T10:27:17.274Z,2.03
2022-11-20T10:28:41.603Z,2.16
2022-11-20T10:29:47.507Z,2.27
2022-11-20T10:30:54.308Z,2.25
2022-11-20T10:31:59.877Z,2.40
2022-11-20T10:33:11.534Z,2.43
2022-11-20T10:34:22.985Z,2.17
2022-11-20T10:35:42.894Z,2.27
2022-11-20T10:36:48.570Z,2.42
2022-11-20T10:37:56.839Z,2.58
2022-11-20T10:39:08.038Z,2.14
2022-11-20T10:40:40.048Z,2.17
2022-11-20T10:41:44.064Z,1.91
2022-11-20T10:42:49.664Z,1.74
2022-11-20T10:44:07.491Z,1.79
2022-11-20T10:45:16.775Z,1.97
2022-11-20T10:46:24.141Z,2.19
2022-11-20T10:47:27.876Z,2.30
2022-11-20T10:48:31.949Z,2.44
2022-11-20T10:49:34.874Z,2.58
2022-11-20T10:50:40.496Z,2.64
2022-11-20T10:51:56.955Z,2.67
2022-11-20T10:53:20.703Z,2.71
2022-11-20T10:54:49.418Z,2.82
2022-11-20T10:56:00.932Z,2.65
2022-11-20T10:58:38.830Z,2.30
2022-11-20T11:00:02.881Z,2.20
2022-11-20T11:01:17.945Z,2.26
2022-11-20T11:02:23.172Z,2.29
2022-11-20T11:03:28.705Z,2.23
2022-11-20T11:04:47.312Z,1.79
2022-11-20T11:06:11.244Z,1.70
2022-11-20T11:07:16.938Z,1.69
2022-11-20T11:08:20.229Z,1.83
2022-11-20T11:09:25.792Z,1.96
2022-11-20T11:10:37.555Z,1.91
2022-11-20T11:11:39.587Z,1.94
2022-11-20T11:12:45.070Z,2.03
2022-11-20T11:13:46.899Z,2.10
2022-11-20T11:14:51.361Z,2.16
2022-11-20T11:15:54.803Z,2.05
2022-11-20T11:16:58.262Z,2.19
2022-11-20T11:18:00.201Z,2.19
2022-11-20T11:19:08.211Z,2.19
2022-11-20T11:20:21.898Z,2.21
2022-11-20T11:21:25.447Z,2.16
2022-11-20T11:22:34.257Z,2.18
2022-11-20T11:23:42.229Z,2.21
2022-11-20T11:24:52.769Z,2.22
2022-11-20T11:25:59.667Z,2.26
2022-11-20T11:27:04.656Z,2.26
2022-11-20T11:28:21.986Z,2.30
2022-11-20T11:29:24.481Z,2.08
2022-11-20T11:30:29.354Z,1.98
2022-11-20T11:31:34.222Z,1.83
2022-11-20T11:32:36.150Z,1.75
2022-11-20T11:33:38.106Z,1.85
2022-11-20T11:34:40.325Z,1.94
2022-11-20T11:36:59.547Z,1.72
2022-11-20T11:38:08.306Z,1.53
2022-11-20T11:39:17.450Z,1.55
2022-11-20T11:40:24.346Z,1.64
2022-11-20T11:41:30.467Z,1.72
2022-11-20T11:42:33.412Z,1.81
2022-11-20T11:43:38.473Z,1.87
2022-11-20T11:44:44.648Z,1.93
2022-11-20T11:45:56.455Z,1.80
2022-11-20T11:46:58.796Z,1.70
2022-11-20T11:48:04.127Z,1.56
2022-11-20T11:49:12.726Z,1.59
2022-11-20T11:50:20.201Z,1.56
2022-11-20T11:51:23.202Z,1.58
2022-11-20T11:52:26.711Z,1.63
2022-11-20T11:53:30.580Z,1.57
2022-11-20T11:54:46.112Z,1.44
2022-11-20T11:55:57.862Z,1.41
2022-11-20T11:57:04.626Z,1.17
2022-11-20T11:58:33.036Z,1.13
2022-11-20T12:00:04.552Z,1.19
2022-11-20T12:01:16.090Z,1.08
2022-11-20T12:02:40.224Z,1.05
2022-11-20T12:03:45.164Z,1.06
2022-11-20T12:04:53.424Z,0.95
2022-11-20T12:06:01.997Z,0.94
2022-11-20T12:07:50.588Z,0.94
2022-11-20T12:08:50.251Z,0.85
2022-11-20T12:09:55.590Z,0.64
2022-11-20T12:11:26.924Z,0.75
2022-11-20T12:12:33.067Z,0.87
2022-11-20T12:13:38.585Z,0.86
2022-11-20T12:14:44.289Z,0.84
2022-11-20T12:15:48.329Z,0.76
2022-11-20T12:18:21.622Z,1.04
2022-11-20T12:19:25.012Z,0.93
2022-11-20T12:20:31.937Z,0.58
2022-11-20T12:21:40.976Z,0.61
2022-11-20T12:22:59.805Z,0.65
2022-11-20T12:24:08.340Z,0.69
2022-11-20T12:25:14.186Z,0.67
2022-11-20T12:26:27.905Z,0.41
2022-11-20T12:27:46.397Z,0.41
2022-11-20T12:29:07.485Z,0.51
2022-11-20T12:30:13.153Z,0.61
2022-11-20T12:31:31.317Z,0.62
2022-11-20T12:32:39.631Z,0.67
2022-11-20T12:34:09.073Z,0.56
2022-11-20T12:35:48.751Z,0.65
2022-11-20T12:37:12.244Z,0.53
2022-11-20T12:38:48.328Z,0.52
2022-11-20T12:39:51.593Z,0.54
2022-11-20T12:40:57.296Z,0.62
2022-11-20T12:42:23.460Z,0.68
2022-11-20T12:43:29.178Z,0.67
2022-11-20T12:44:50.889Z,0.55
2022-11-20T12:46:02.655Z,0.55
2022-11-20T12:47:11.263Z,0.47
2022-11-20T12:48:46.048Z,0.59
2022-11-20T12:49:48.930Z,0.63
2022-11-20T12:51:16.354Z,0.74
2022-11-20T12:52:28.089Z,0.66
2022-11-20T12:54:00.637Z,0.72
2022-11-20T12:55:19.685Z,0.69
2022-11-20T12:56:35.495Z,0.71
2022-11-20T12:58:07.470Z,0.51
2022-11-20T12:59:19.613Z,0.39
2022-11-20T13:00:24.278Z,0.33
2022-11-20T13:01:48.331Z,0.20
2022-11-20T13:03:09.138Z,0.01
2022-11-20T13:04:39.563Z,0.00
2022-11-20T13:05:57.299Z,-0.05
2022-11-20T13:07:05.401Z,-0.08
2022-11-20T13:08:11.834Z,-0.21
2022-11-20T13:09:18.455Z,-0.11
2022-11-20T13:10:37.139Z,-0.10
2022-11-20T13:11:58.720Z,-0.02
2022-11-20T13:13:16.989Z,0.13
2022-11-20T13:14:22.905Z,0.08
2022-11-20T13:15:33.681Z,0.12
2022-11-20T13:16:54.554Z,0.04
2022-11-20T13:18:05.524Z,-0.07
2022-11-20T13:19:13.730Z,-0.10
2022-11-20T13:20:20.805Z,-0.07
2022-11-20T13:21:26.758Z,0.06
2022-11-20T13:22:31.701Z,0.20
2022-11-20T13:23:33.571Z,-0.02
2022-11-20T13:24:35.633Z,-0.05
2022-11-20T13:25:40.621Z,-0.13
2022-11-20T13:26:42.722Z,-0.22
2022-11-20T13:27:49.508Z,-0.30
2022-11-20T13:29:11.954Z,-0.24
2022-11-20T13:30:19.349Z,-0.22
2022-11-20T13:31:34.604Z,-0.22
2022-11-20T13:32:36.436Z,-0.29
2022-11-20T13:33:39.664Z,-0.28
2022-11-20T13:34:54.549Z,-0.34
2022-11-20T13:36:00.211Z,-0.38
2022-11-20T13:37:02.252Z,-0.34
2022-11-20T13:38:12.753Z,-0.24
2022-11-20T13:39:18.245Z,-0.12
2022-11-20T13:40:24.446Z,-0.03
2022-11-20T13:41:30.460Z,0.05
2022-11-20T13:42:38.672Z,0.05
2022-11-20T13:43:42.912Z,0.07
2022-11-20T13:44:48.913Z,-0.06
2022-11-20T13:46:00.698Z,-0.04
2022-11-20T13:47:02.766Z,-0.05
2022-11-20T13:48:08.562Z,-0.22
2022-11-20T13:49:17.328Z,-0.35
2022-11-20T13:50:25.191Z,-0.41
2022-11-20T13:51:36.920Z,-0.57
2022-11-20T13:52:51.829Z,-0.50
2022-11-20T13:54:03.772Z,-0.45
2022-11-20T13:55:34.593Z,-0.64
2022-11-20T13:56:46.771Z,-0.75
2022-11-20T13:58:01.157Z,-0.75
2022-11-20T13:59:12.082Z,-0.69
2022-11-20T14:00:15.155Z,-0.59
2022-11-20T14:01:27.032Z,-0.76
2022-11-20T14:02:31.757Z,-0.78
2022-11-20T14:04:04.691Z,-0.77
2022-11-20T14:04:42.591Z,-0.72
2022-11-20T14:06:06.002Z,-0.71
2022-11-20T14:07:11.084Z,-0.67
2022-11-20T14:08:17.040Z,-0.56
2022-11-20T14:09:31.291Z,-0.64
2022-11-20T14:10:33.471Z,-0.75
2022-11-20T14:11:35.419Z,-0.73
2022-11-20T14:12:38.084Z,-0.75
2022-11-20T14:13:39.988Z,-0.76
2022-11-20T14:16:01.257Z,-0.81
2022-11-20T14:17:26.273Z,-0.87
2022-11-20T14:18:28.056Z,-0.78
2022-11-20T14:19:31.550Z,-0.59
2022-11-20T14:20:34.618Z,-0.60
2022-11-20T14:21:36.527Z,-0.63
2022-11-20T14:22:38.425Z,-0.60
2022-11-20T14:23:40.160Z,-0.67
2022-11-20T14:24:42.447Z,-0.82
2022-11-20T14:25:46.114Z,-0.75
2022-11-20T14:26:51.394Z,-0.74
2022-11-20T14:27:56.863Z,-0.85
2022-11-20T14:29:04.560Z,-0.88
2022-11-20T14:31:37.294Z,-0.69
2022-11-20T14:32:39.975Z,-0.80